YYD weather

Smithers Airport
Smithers, British Columbia, Canada

Public forecast

Using degrees Celsius for public forecast. Weather courtesy of forecast.io.

METAR (pilot weather report)

Retrieved 2019/08/25 21:00 UTC (49 minutes ago):

CYYD 252100Z 32008KT 300V010 25SM SCT060 18/05 A3013 RMK CU3 SLP210 DENSITY ALT 2300FT

TAF (pilot weather forecast)

Retrieved 2019/08/25 19:00 UTC (3 hours ago):

TAF CYYD 251838Z 2519/2606 VRB03KT P6SM FEW060 FM252100 32010KT P6SM SCT050 TEMPO 2521/2604 BKN050 FM260400 34006KT P6SM SCT020 BKN030 RMK NXT FCST BY 260100Z